Time;durP1;ratioP1;P1;durP2;ratioP2;P2;SDS_P1;SDS_P2;PMS_P1;PMS_P2;Temp;Humidity;BMP_temperature;BMP_pressure;BME280_temperature;BME280_humidity;BME280_pressure;Samples;Min_cycle;Max_cycle;Signal;HPM_P1;HPM_P2
2022/12/28 00:00:34;;;;;;;90.80;83.05;;;;;;;4.94;100.00;101473.06;10620464;27;20082;-65
2022/12/28 00:05:36;;;;;;;14.85;13.43;;;;;;;4.98;100.00;101479.94;10621017;27;20050;-67
2022/12/28 00:10:39;;;;;;;16.88;15.77;;;;;;;4.97;100.00;101467.88;10620737;28;20039;-69
2022/12/28 00:15:41;;;;;;;134.10;118.25;;;;;;;5.01;100.00;101455.75;10620697;28;20118;-69
2022/12/28 00:20:42;;;;;;;173.35;156.20;;;;;;;5.00;100.00;101441.09;10617703;28;20118;-70
2022/12/28 00:25:46;;;;;;;74.63;69.25;;;;;;;4.96;100.00;101408.38;10620134;28;20060;-68
2022/12/28 00:30:47;;;;;;;57.15;51.65;;;;;;;4.99;100.00;101396.25;10620988;28;20063;-69
2022/12/28 00:35:53;;;;;;;71.45;66.68;;;;;;;5.00;100.00;101397.97;10619937;28;20472;-69
2022/12/28 00:40:56;;;;;;;108.72;101.55;;;;;;;5.14;100.00;101386.63;10619749;27;20144;-67
2022/12/28 00:45:58;;;;;;;48.13;45.30;;;;;;;5.18;100.00;101384.84;10617620;28;20112;-65
2022/12/28 00:51:05;;;;;;;9.07;8.52;;;;;;;5.25;100.00;101374.44;10620104;28;20057;-67
2022/12/28 00:56:11;;;;;;;195.07;173.30;;;;;;;5.31;100.00;101360.56;10619661;28;20043;-69
2022/12/28 01:01:17;;;;;;;283.70;242.20;;;;;;;5.31;100.00;101347.63;10619803;28;20118;-75
2022/12/28 01:06:20;;;;;;;157.05;143.18;;;;;;;5.34;100.00;101346.72;10624973;27;20464;-69
2022/12/28 01:11:26;;;;;;;34.60;31.95;;;;;;;5.34;100.00;101328.59;10627771;27;20111;-67
2022/12/28 01:16:31;;;;;;;135.60;123.45;;;;;;;5.32;100.00;101333.81;10624406;27;20507;-71
2022/12/28 01:21:35;;;;;;;175.80;143.90;;;;;;;5.36;100.00;101325.13;10626438;27;20498;-74
2022/12/28 01:26:38;;;;;;;48.13;44.75;;;;;;;5.39;100.00;101319.03;10626379;27;20057;-70
2022/12/28 01:31:39;;;;;;;91.88;82.35;;;;;;;5.56;100.00;101308.47;10626583;27;20584;-68
2022/12/28 01:36:41;;;;;;;132.38;119.32;;;;;;;5.66;100.00;101312.66;10626330;27;20475;-68
2022/12/28 01:41:45;;;;;;;42.42;39.47;;;;;;;5.65;100.00;101300.56;10625942;27;20039;-68
2022/12/28 01:46:51;;;;;;;312.95;262.55;;;;;;;5.74;100.00;101278.00;10623377;27;20047;-73
2022/12/28 01:52:02;;;;;;;183.88;171.68;;;;;;;5.80;100.00;101272.72;10625269;27;20053;-73
2022/12/28 01:57:06;;;;;;;223.80;207.55;;;;;;;5.89;100.00;101267.38;10625743;27;20130;-68
2022/12/28 02:02:11;;;;;;;401.70;366.88;;;;;;;5.90;100.00;101257.91;10625633;27;20073;-69
2022/12/28 02:07:23;;;;;;;212.35;198.80;;;;;;;5.93;100.00;101243.16;10624629;27;20448;-70
2022/12/28 02:12:28;;;;;;;503.33;337.30;;;;;;;6.11;100.00;101230.81;10625201;27;20043;-70
2022/12/28 02:17:30;;;;;;;240.63;218.45;;;;;;;6.12;100.00;101216.97;10620842;27;20501;-72
2022/12/28 02:23:10;;;;;;;338.70;308.42;;;;;;;6.15;100.00;101206.53;10624281;27;20132;-69
2022/12/28 02:28:43;;;;;;;213.48;199.55;;;;;;;6.11;100.00;101185.88;10624631;27;20100;-69
2022/12/28 02:33:58;;;;;;;350.10;320.70;;;;;;;6.06;100.00;101178.22;10624175;27;20070;-74
2022/12/28 02:39:09;;;;;;;296.05;275.77;;;;;;;6.06;100.00;101170.44;10623266;27;20051;-69
2022/12/28 02:50:04;;;;;;;379.73;350.58;;;;;;;6.09;100.00;101165.19;10624105;27;20048;-73
2022/12/28 03:01:05;;;;;;;220.32;208.00;;;;;;;5.96;100.00;101168.84;10622560;27;20039;-72
2022/12/28 03:11:48;;;;;;;185.90;176.27;;;;;;;5.86;100.00;101158.66;10622324;27;20071;-67
2022/12/28 03:33:06;;;;;;;1359.47;758.78;;;;;;;5.79;100.00;101157.06;10621511;27;20126;-72
2022/12/28 03:38:26;;;;;;;575.85;522.92;;;;;;;5.76;100.00;101149.34;10621249;27;20108;-70
2022/12/28 03:43:40;;;;;;;383.42;357.80;;;;;;;5.79;100.00;101152.72;10620868;27;20084;-67
2022/12/28 03:48:46;;;;;;;1196.22;681.15;;;;;;;5.85;100.00;101151.75;10618541;27;20069;-69
2022/12/28 03:53:49;;;;;;;278.27;258.58;;;;;;;5.91;100.00;101149.06;10621032;27;20099;-73
2022/12/28 03:58:51;;;;;;;171.18;159.80;;;;;;;5.95;100.00;101136.06;10620606;27;20039;-74
2022/12/28 04:03:54;;;;;;;313.15;296.10;;;;;;;5.96;100.00;101127.41;10620727;27;20070;-70
2022/12/28 04:08:56;;;;;;;269.08;253.55;;;;;;;6.05;100.00;101137.63;10620936;28;20096;-69
2022/12/28 04:13:58;;;;;;;295.60;279.00;;;;;;;6.16;100.00;101129.66;10620291;28;20509;-67
2022/12/28 04:19:01;;;;;;;423.65;394.67;;;;;;;6.23;100.00;101120.03;10617725;28;20490;-68
2022/12/28 04:24:03;;;;;;;756.00;490.30;;;;;;;6.31;100.00;101125.91;10620396;28;20047;-68
2022/12/28 04:29:04;;;;;;;385.13;350.63;;;;;;;6.40;100.00;101122.28;10620172;28;20054;-72
2022/12/28 04:34:07;;;;;;;430.42;397.10;;;;;;;6.46;100.00;101132.50;10620054;28;20100;-74
2022/12/28 04:39:10;;;;;;;380.02;356.15;;;;;;;6.56;100.00;101130.56;10622325;27;20474;-71
2022/12/28 04:44:12;;;;;;;700.72;439.83;;;;;;;6.57;100.00;101121.94;10628695;27;20063;-70
2022/12/28 04:49:15;;;;;;;495.83;460.85;;;;;;;6.61;100.00;101120.97;10626294;27;20055;-68
2022/12/28 04:54:17;;;;;;;1260.40;738.13;;;;;;;6.64;100.00;101115.72;10627772;27;20100;-71
2022/12/28 04:59:19;;;;;;;377.50;348.25;;;;;;;6.67;100.00;101118.25;10627441;27;20081;-69
2022/12/28 05:04:22;;;;;;;268.23;250.40;;;;;;;6.69;100.00;101113.88;10627743;27;20455;-72
2022/12/28 05:09:23;;;;;;;327.15;305.35;;;;;;;6.65;100.00;101119.16;10627717;27;20102;-69
2022/12/28 05:14:25;;;;;;;278.73;264.00;;;;;;;6.63;100.00;101102.75;10627377;27;20051;-74
2022/12/28 05:19:28;;;;;;;1155.68;647.35;;;;;;;6.64;100.00;101110.53;10624600;27;20214;-74
2022/12/28 05:24:30;;;;;;;1999.90;999.90;;;;;;;6.62;100.00;101112.31;10626905;27;20514;-71
2022/12/28 05:29:31;;;;;;;182.85;171.85;;;;;;;6.62;100.00;101101.94;10626278;27;20440;-71
2022/12/28 05:34:35;;;;;;;1999.90;999.90;;;;;;;6.66;100.00;101108.75;10626058;27;20070;-69
2022/12/28 05:39:36;;;;;;;1999.90;999.90;;;;;;;6.66;100.00;101116.53;10626187;27;20096;-69
2022/12/28 05:44:38;;;;;;;1999.90;999.90;;;;;;;6.72;100.00;101112.09;10626984;27;20047;-71
2022/12/28 05:49:41;;;;;;;1999.90;999.90;;;;;;;6.76;100.00;101116.31;10623304;27;20047;-72
2022/12/28 05:54:43;;;;;;;1999.90;999.90;;;;;;;6.73;100.00;101106.00;10625722;27;20137;-69
2022/12/28 05:59:45;;;;;;;1999.90;999.90;;;;;;;6.73;100.00;101108.59;10625639;27;20096;-70
2022/12/28 06:04:48;;;;;;;1999.90;999.90;;;;;;;6.75;100.00;101096.47;10625737;27;20051;-70
2022/12/28 06:09:49;;;;;;;1999.90;999.90;;;;;;;6.76;100.00;101092.97;10624920;27;20496;-68
2022/12/28 06:14:51;;;;;;;1999.90;999.90;;;;;;;6.77;100.00;101098.13;10624966;27;20057;-72
2022/12/28 06:19:54;;;;;;;1999.90;999.90;;;;;;;6.76;100.00;101082.59;10621989;27;20087;-69
2022/12/28 06:24:56;;;;;;;1999.90;999.90;;;;;;;6.77;100.00;101066.19;10624147;27;20046;-69
2022/12/28 06:29:57;;;;;;;351.65;327.52;;;;;;;6.78;100.00;101066.13;10624771;27;20110;-70
2022/12/28 06:35:01;;;;;;;1999.90;999.90;;;;;;;6.81;100.00;101060.03;10623535;27;20047;-70
2022/12/28 06:40:05;;;;;;;1999.90;999.90;;;;;;;6.80;100.00;101053.13;10623263;27;20063;-73
2022/12/28 06:45:08;;;;;;;1999.90;999.90;;;;;;;6.83;100.00;101058.22;10623225;27;20063;-75
2022/12/28 06:50:12;;;;;;;110.50;105.03;;;;;;;6.88;100.00;101051.19;10620937;27;20383;-69
2022/12/28 06:55:13;;;;;;;130.70;107.40;;;;;;;6.88;100.00;101050.34;10622839;27;20533;-76
2022/12/28 07:00:16;;;;;;;1999.90;999.90;;;;;;;6.92;100.00;101042.44;10622453;27;20073;-71
2022/12/28 07:05:19;;;;;;;1999.90;999.90;;;;;;;6.94;100.00;101035.50;10622193;27;20090;-70
2022/12/28 07:10:21;;;;;;;1999.90;999.90;;;;;;;6.98;100.00;101035.41;10622237;27;20100;-69
2022/12/28 07:15:23;;;;;;;1999.90;999.90;;;;;;;6.98;100.00;101027.63;10622126;27;20521;-69
2022/12/28 07:20:27;;;;;;;1999.90;999.90;;;;;;;6.98;100.00;101036.25;10619242;27;20538;-70
2022/12/28 07:25:28;;;;;;;1999.90;999.90;;;;;;;7.01;100.00;101024.97;10622217;27;20104;-67
2022/12/28 07:30:30;;;;;;;1073.07;569.08;;;;;;;7.02;100.00;101026.66;10621636;27;20043;-70
2022/12/28 07:35:33;;;;;;;1999.90;999.90;;;;;;;7.02;100.00;101031.84;10621483;27;20095;-69
2022/12/28 07:40:35;;;;;;;1999.90;999.90;;;;;;;7.08;100.00;101031.69;10621362;27;20046;-71
2022/12/28 07:45:37;;;;;;;1999.90;999.90;;;;;;;7.09;100.00;101023.88;10621144;27;20092;-68
2022/12/28 07:50:40;;;;;;;216.18;198.25;;;;;;;7.13;100.00;101018.59;10618390;27;20490;-67
2022/12/28 07:55:42;;;;;;;1999.90;999.90;;;;;;;7.15;100.00;101028.06;10621029;27;20462;-69
2022/12/28 08:00:44;;;;;;;193.85;177.45;;;;;;;7.21;100.00;101035.69;10621006;27;20096;-71
2022/12/28 08:05:47;;;;;;;124.40;115.75;;;;;;;7.25;100.00;101027.84;10621053;27;20099;-69
2022/12/28 08:10:48;;;;;;;620.65;362.38;;;;;;;7.30;100.00;101025.97;10620857;28;20051;-69
2022/12/28 08:15:54;;;;;;;195.63;180.65;;;;;;;7.34;100.00;101019.81;10626724;27;20055;-74
2022/12/28 08:21:02;;;;;;;222.27;206.60;;;;;;;7.32;100.00;101026.75;10627143;27;20142;-69
2022/12/28 08:26:09;;;;;;;66.43;63.00;;;;;;;7.31;100.00;101025.06;10628531;27;20452;-73
2022/12/28 08:31:14;;;;;;;108.80;102.80;;;;;;;7.32;100.00;101021.56;10628994;27;20043;-70
2022/12/28 08:36:17;;;;;;;130.05;120.88;;;;;;;7.32;100.00;101018.97;10628236;27;20096;-71
2022/12/28 08:41:22;;;;;;;55.88;52.42;;;;;;;7.31;100.00;101015.56;10628688;27;20078;-69
2022/12/28 08:46:27;;;;;;;110.07;100.43;;;;;;;7.34;100.00;101018.06;10625652;27;20463;-73
2022/12/28 08:51:34;;;;;;;233.57;208.82;;;;;;;7.34;100.00;101014.63;10628150;27;20104;-76
2022/12/28 08:56:38;;;;;;;78.22;73.75;;;;;;;7.31;100.00;101014.69;10627647;27;20043;-68
2022/12/28 09:01:40;;;;;;;47.15;44.47;;;;;;;7.29;100.00;101019.09;10627752;27;20045;-68
2022/12/28 09:06:44;;;;;;;63.00;59.00;;;;;;;7.28;100.00;101022.53;10627909;27;20061;-71
2022/12/28 09:11:46;;;;;;;38.83;35.72;;;;;;;7.31;100.00;101022.47;10626930;27;20057;-71
2022/12/28 09:16:48;;;;;;;107.80;98.35;;;;;;;7.33;100.00;101015.50;10625033;27;20179;-67
2022/12/28 09:21:52;;;;;;;59.78;56.40;;;;;;;7.38;100.00;101031.81;10626641;27;20158;-75
2022/12/28 09:26:54;;;;;;;43.10;40.65;;;;;;;7.42;100.00;101023.06;10626318;27;20059;-67
2022/12/28 09:31:56;;;;;;;43.00;40.55;;;;;;;7.42;100.00;101020.44;10627116;27;20043;-69
2022/12/28 09:37:01;;;;;;;41.30;38.30;;;;;;;7.51;100.00;101028.88;10626153;27;20060;-77
2022/12/28 09:42:08;;;;;;;31.60;29.80;;;;;;;7.54;100.00;101021.88;10626243;27;20069;-69
2022/12/28 09:47:22;;;;;;;44.85;42.47;;;;;;;7.60;100.00;101028.66;10623235;27;20466;-67
2022/12/28 09:52:31;;;;;;;28.83;27.23;;;;;;;7.61;100.00;101014.78;10625924;27;20092;-68
2022/12/28 09:57:38;;;;;;;87.47;80.82;;;;;;;7.61;100.00;101014.78;10625680;27;20055;-69
2022/12/28 10:02:42;;;;;;;26.88;25.52;;;;;;;7.58;100.00;101009.66;10625641;27;20073;-68
2022/12/28 10:07:45;;;;;;;27.52;25.92;;;;;;;7.59;100.00;101011.34;10624969;27;20456;-68
2022/12/28 10:12:49;;;;;;;86.90;78.20;;;;;;;7.53;100.00;101001.97;10624858;27;20047;-71
2022/12/28 10:17:51;;;;;;;125.70;118.50;;;;;;;7.55;100.00;100999.34;10622329;27;20051;-68
2022/12/28 10:22:58;;;;;;;252.50;230.65;;;;;;;7.57;100.00;101002.78;10623843;27;20100;-68
2022/12/28 10:28:01;;;;;;;158.65;150.43;;;;;;;7.57;100.00;100992.38;10625494;27;20047;-68
2022/12/28 10:33:03;;;;;;;635.35;378.50;;;;;;;7.59;100.00;100991.44;10624359;27;20079;-68
2022/12/28 10:38:21;;;;;;;107.20;101.82;;;;;;;7.60;100.00;100994.91;10623055;27;20050;-74
2022/12/28 10:43:26;;;;;;;1999.90;999.90;;;;;;;7.59;100.00;100985.38;10623633;27;20047;-74
2022/12/28 10:48:33;;;;;;;637.70;379.25;;;;;;;7.57;100.00;100993.22;10620980;27;20096;-70
2022/12/28 10:53:43;;;;;;;618.63;362.05;;;;;;;7.59;100.00;100987.97;10623255;27;20047;-70
2022/12/28 10:58:47;;;;;;;207.43;193.88;;;;;;;7.59;100.00;100978.44;10623367;27;20055;-75
2022/12/28 11:04:03;;;;;;;1145.05;634.53;;;;;;;7.62;100.00;100966.28;10623090;27;20073;-67
2022/12/28 11:09:16;;;;;;;200.95;187.43;;;;;;;7.64;100.00;100972.28;10623124;27;20056;-70
2022/12/28 11:14:31;;;;;;;1999.90;999.90;;;;;;;7.68;100.00;100969.56;10622334;27;20551;-71
2022/12/28 11:19:33;;;;;;;658.17;396.40;;;;;;;7.73;100.00;100961.59;10619578;27;20043;-72
2022/12/28 11:24:36;;;;;;;1999.90;999.90;;;;;;;7.69;100.00;100955.66;10621816;27;20081;-69
2022/12/28 11:29:44;;;;;;;1999.90;999.90;;;;;;;7.75;100.00;100953.78;10621589;27;20448;-74
2022/12/28 11:34:48;;;;;;;1999.90;999.90;;;;;;;7.78;100.00;100938.09;10621427;27;20422;-70
2022/12/28 11:39:54;;;;;;;1999.90;999.90;;;;;;;7.82;100.00;100935.38;10621140;27;20043;-70
2022/12/28 11:44:56;;;;;;;1999.90;999.90;;;;;;;7.84;100.00;100922.34;10621003;27;20080;-69
2022/12/28 11:50:38;;;;;;;;;;;;;;;7.88;100.00;100913.56;10618975;27;20055;-75
2022/12/28 11:56:04;;;;;;;1999.90;999.90;;;;;;;7.86;100.00;100904.94;10620901;27;19919;-68
2022/12/28 12:01:08;;;;;;;1048.43;545.88;;;;;;;7.85;100.00;100872.06;10620844;27;20130;-73
2022/12/28 12:06:10;;;;;;;1999.90;999.90;;;;;;;7.84;100.00;100885.97;10620480;27;20047;-74
2022/12/28 12:11:32;;;;;;;1999.90;999.90;;;;;;;7.90;100.00;100870.19;10620845;27;20057;-70
2022/12/28 12:16:48;;;;;;;1999.90;999.90;;;;;;;7.94;100.00;100868.34;10618280;28;20537;-71
2022/12/28 12:22:01;;;;;;;1999.90;999.90;;;;;;;7.92;100.00;100860.59;10619824;28;20054;-75
2022/12/28 12:27:17;;;;;;;1053.40;550.35;;;;;;;7.88;100.00;100846.00;10620095;28;20107;-71
2022/12/28 12:32:25;;;;;;;1050.00;546.22;;;;;;;7.92;100.00;100836.34;10620620;28;20043;-71
2022/12/28 12:37:42;;;;;;;1999.90;999.90;;;;;;;7.92;100.00;100828.56;10620484;28;20102;-68
2022/12/28 12:43:09;;;;;;;1999.90;999.90;;;;;;;7.98;100.00;100817.97;10620007;28;20481;-75
2022/12/28 12:48:52;;;;;;;1999.90;999.90;;;;;;;8.00;100.00;100805.78;10617197;28;20445;-70
2022/12/28 12:54:20;;;;;;;572.67;318.60;;;;;;;8.05;100.00;100790.03;10590267;28;20100;-70
2022/12/28 12:59:58;;;;;;;1517.53;766.60;;;;;;;8.10;100.00;100772.53;10620760;27;20123;-76
2022/12/28 13:05:03;;;;;;;1999.90;999.90;;;;;;;8.14;100.00;100773.28;10627843;27;20057;-70
2022/12/28 13:10:16;;;;;;;1999.90;999.90;;;;;;;8.19;100.00;100759.25;10627767;27;20122;-72
2022/12/28 13:15:19;;;;;;;1999.90;999.90;;;;;;;8.21;100.00;100741.81;10626953;27;20104;-68
2022/12/28 13:20:22;;;;;;;224.43;208.20;;;;;;;8.25;100.00;100733.03;10624297;27;20636;-73
2022/12/28 13:25:26;;;;;;;128.27;120.75;;;;;;;8.22;100.00;100712.31;10627232;27;20092;-70
2022/12/28 13:30:30;;;;;;;112.82;105.38;;;;;;;8.16;100.00;100703.88;10626555;27;20577;-69
2022/12/28 13:35:33;;;;;;;365.52;331.25;;;;;;;8.21;100.00;100682.03;10626739;27;20493;-69
2022/12/28 13:40:39;;;;;;;212.95;189.85;;;;;;;8.29;100.00;100680.91;10626173;27;20110;-74
2022/12/28 13:45:43;;;;;;;183.48;168.30;;;;;;;8.31;100.00;100660.94;10626113;27;20046;-72
2022/12/28 13:50:45;;;;;;;46.25;43.33;;;;;;;8.29;100.00;100647.13;10623770;27;20092;-70
2022/12/28 13:55:50;;;;;;;;;;;;;;;8.25;100.00;100633.41;10627218;27;20106;-67
2022/12/28 14:00:58;;;;;;;210.05;193.82;;;;;;;8.35;100.00;100585.34;10625261;27;19919;-69
2022/12/28 14:06:00;;;;;;;187.25;112.38;;;;;;;8.42;100.00;100575.53;10625012;27;20097;-69
2022/12/28 14:11:04;;;;;;;224.95;209.93;;;;;;;8.43;100.00;100561.66;10624116;27;20527;-70
2022/12/28 14:16:09;;;;;;;1999.90;999.90;;;;;;;8.46;100.00;100545.91;10624312;27;20047;-71
2022/12/28 14:21:11;;;;;;;1999.90;999.90;;;;;;;8.44;100.00;100555.53;10623622;27;20057;-73
2022/12/28 14:26:22;;;;;;;1999.90;999.90;;;;;;;8.52;100.00;100542.22;10624319;27;20516;-70
2022/12/28 14:31:29;;;;;;;1094.25;587.38;;;;;;;8.59;100.00;100533.31;10624365;27;20058;-69
2022/12/28 14:36:38;;;;;;;1999.90;999.90;;;;;;;8.65;100.00;100526.19;10624172;27;20050;-69
2022/12/28 14:41:46;;;;;;;1999.90;999.90;;;;;;;8.67;100.00;100517.44;10623882;27;20114;-69
2022/12/28 14:46:53;;;;;;;672.30;409.35;;;;;;;8.62;100.00;100504.59;10621350;27;20577;-72
2022/12/28 14:51:55;;;;;;;1999.90;999.90;;;;;;;8.65;100.00;100481.97;10623666;27;20068;-68
2022/12/28 14:57:05;;;;;;;1128.85;620.58;;;;;;;8.67;100.00;100485.34;10623470;27;20065;-70
2022/12/28 15:02:41;;;;;;;722.95;451.52;;;;;;;8.69;100.00;100478.34;10622359;27;20059;-70
2022/12/28 15:07:43;;;;;;;219.63;207.70;;;;;;;8.61;100.00;100476.03;10622620;27;20062;-70
2022/12/28 15:12:45;;;;;;;1156.28;644.60;;;;;;;8.67;100.00;100455.00;10622116;27;20482;-70
2022/12/28 15:17:48;;;;;;;1094.88;589.15;;;;;;;8.65;100.00;100446.38;10620045;27;20050;-69
2022/12/28 15:22:50;;;;;;;702.95;438.58;;;;;;;8.69;100.00;100421.13;10621078;27;20048;-72
2022/12/28 15:27:52;;;;;;;1999.90;999.90;;;;;;;8.69;100.00;100428.91;10622414;27;20054;-72
2022/12/28 15:32:55;;;;;;;1999.90;999.90;;;;;;;8.69;100.00;100411.53;10621725;27;20120;-69
2022/12/28 15:37:57;;;;;;;655.00;395.60;;;;;;;8.67;100.00;100420.31;10621513;27;20055;-70
2022/12/28 15:42:59;;;;;;;155.48;147.20;;;;;;;8.64;100.00;100390.06;10621400;27;20096;-73
2022/12/28 15:48:02;;;;;;;712.60;442.70;;;;;;;8.61;100.00;100383.25;10618360;27;20602;-71
2022/12/28 15:53:03;;;;;;;214.00;201.23;;;;;;;8.58;100.00;100382.50;10621352;27;20055;-73
2022/12/28 15:58:05;;;;;;;1164.50;649.90;;;;;;;8.57;100.00;100380.84;10620952;27;20057;-74
2022/12/28 16:03:08;;;;;;;707.90;439.65;;;;;;;8.45;100.00;100376.97;10621060;27;20039;-71
2022/12/28 16:08:10;;;;;;;258.90;238.95;;;;;;;8.42;100.00;100362.31;10620984;27;20047;-70
2022/12/28 16:13:24;;;;;;;240.25;224.70;;;;;;;8.36;100.00;100359.97;10620356;27;20099;-66
2022/12/28 16:18:27;;;;;;;212.40;193.80;;;;;;;8.31;100.00;100357.56;10619467;28;20168;-75
2022/12/28 16:23:31;;;;;;;189.68;174.30;;;;;;;8.28;100.00;100364.66;10620885;28;20077;-69
2022/12/28 16:28:33;;;;;;;156.10;147.07;;;;;;;8.24;100.00;100338.78;10620639;28;20501;-68
2022/12/28 16:33:37;;;;;;;103.15;96.97;;;;;;;8.14;100.00;100332.25;10620585;27;20110;-69
2022/12/28 16:38:38;;;;;;;105.80;99.50;;;;;;;8.12;100.00;100310.69;10628373;27;20096;-72
2022/12/28 16:43:40;;;;;;;39.13;37.05;;;;;;;8.03;100.00;100306.69;10628329;27;20452;-70
2022/12/28 16:48:44;;;;;;;40.33;38.00;;;;;;;8.08;100.00;100296.13;10626570;27;20047;-71
2022/12/28 16:53:46;;;;;;;266.40;238.98;;;;;;;8.03;100.00;100277.25;10628468;27;20119;-75
2022/12/28 16:58:48;;;;;;;246.10;228.50;;;;;;;8.05;100.00;100291.03;10627615;27;20073;-69
2022/12/28 17:03:51;;;;;;;272.83;244.70;;;;;;;8.01;100.00;100274.75;10627905;27;20073;-73
2022/12/28 17:08:53;;;;;;;84.07;79.50;;;;;;;8.02;100.00;100265.19;10627703;27;20047;-77
2022/12/28 17:14:00;;;;;;;313.30;286.58;;;;;;;7.99;100.00;100259.22;10626842;27;20053;-74
2022/12/28 17:19:04;;;;;;;53.25;50.55;;;;;;;7.93;100.00;100256.00;10624422;27;20154;-69
2022/12/28 17:24:07;;;;;;;51.55;49.05;;;;;;;7.90;100.00;100262.16;10626753;27;20430;-71
2022/12/28 17:29:09;;;;;;;323.83;287.85;;;;;;;7.97;100.00;100242.81;10626596;27;20050;-70
2022/12/28 17:34:13;;;;;;;190.15;171.15;;;;;;;7.90;100.00;100235.38;10626936;27;20053;-72
2022/12/28 17:39:16;;;;;;;272.05;201.20;;;;;;;7.98;100.00;100223.72;10626034;27;20100;-69
2022/12/28 17:44:18;;;;;;;144.07;133.93;;;;;;;7.88;100.00;100221.56;10626054;27;20043;-69
2022/12/28 17:49:21;;;;;;;249.98;226.63;;;;;;;7.80;100.00;100203.72;10623465;27;20051;-70
2022/12/28 17:54:22;;;;;;;366.45;311.08;;;;;;;7.84;100.00;100187.91;10626225;27;20051;-70
2022/12/28 17:59:24;;;;;;;185.43;168.20;;;;;;;7.78;100.00;100197.72;10626554;27;20076;-71
2022/12/28 18:04:28;;;;;;;1119.45;603.55;;;;;;;7.71;100.00;100185.00;10626181;27;20043;-71
2022/12/28 18:09:30;;;;;;;301.85;244.65;;;;;;;7.69;100.00;100180.75;10625392;27;20047;-69
2022/12/28 18:14:32;;;;;;;211.30;189.00;;;;;;;7.59;100.00;100177.69;10625322;27;20532;-70
2022/12/28 18:19:35;;;;;;;233.88;205.30;;;;;;;7.55;100.00;100169.19;10622348;27;20085;-71
2022/12/28 18:24:37;;;;;;;183.68;166.27;;;;;;;7.46;100.00;100164.38;10624371;27;20047;-71
2022/12/28 18:29:38;;;;;;;203.68;191.05;;;;;;;7.40;100.00;100160.28;10624311;27;20047;-75
2022/12/28 18:34:41;;;;;;;278.80;258.60;;;;;;;7.51;100.00;100162.44;10624503;27;20050;-68
2022/12/28 18:39:43;;;;;;;75.20;71.35;;;;;;;7.62;100.00;100158.56;10623858;27;20468;-69
2022/12/28 18:44:45;;;;;;;191.50;178.98;;;;;;;7.65;100.00;100151.47;10623386;27;20081;-70
2022/12/28 18:49:48;;;;;;;225.50;207.23;;;;;;;7.75;100.00;100143.31;10620912;27;20062;-69
2022/12/28 18:54:50;;;;;;;92.22;86.60;;;;;;;7.69;100.00;100145.25;10623170;27;20054;-70
2022/12/28 18:59:51;;;;;;;334.45;303.30;;;;;;;7.75;100.00;100123.38;10622361;27;20080;-71
2022/12/28 19:04:54;;;;;;;105.80;99.38;;;;;;;7.72;100.00;100129.56;10622998;27;20051;-69
2022/12/28 19:10:11;;;;;;;116.68;110.40;;;;;;;7.77;100.00;100137.13;10623167;27;20047;-70
2022/12/28 19:15:13;;;;;;;707.45;440.75;;;;;;;7.83;100.00;100120.44;10622772;27;20043;-69
2022/12/28 19:20:16;;;;;;;145.50;133.07;;;;;;;7.86;100.00;100104.72;10620014;27;20051;-69
2022/12/28 19:25:18;;;;;;;180.90;169.80;;;;;;;7.91;100.00;100108.00;10621882;27;20078;-70
2022/12/28 19:30:20;;;;;;;161.93;151.32;;;;;;;7.93;100.00;100111.34;10621886;27;20088;-68
2022/12/28 19:35:23;;;;;;;129.90;121.55;;;;;;;7.97;100.00;100112.91;10621613;27;20047;-75
2022/12/28 19:40:24;;;;;;;159.20;149.20;;;;;;;8.06;100.00;100113.41;10622766;27;20104;-73
2022/12/28 19:45:26;;;;;;;164.82;154.85;;;;;;;8.08;100.00;100107.22;10621367;27;20077;-76
2022/12/28 19:50:29;;;;;;;121.32;114.65;;;;;;;8.08;100.00;100116.81;10618803;27;20092;-68
2022/12/28 19:55:33;;;;;;;502.33;411.52;;;;;;;8.15;100.00;100100.03;10621496;27;20047;-70
2022/12/28 20:00:34;;;;;;;215.85;201.18;;;;;;;8.17;100.00;100098.19;10620928;27;20047;-69
2022/12/28 20:05:37;;;;;;;229.10;207.77;;;;;;;8.20;100.00;100092.88;10621261;27;20238;-69
2022/12/28 20:10:39;;;;;;;216.57;201.50;;;;;;;8.29;100.00;100108.97;10620467;27;20489;-69
2022/12/28 20:15:41;;;;;;;191.85;180.65;;;;;;;8.31;100.00;100087.19;10620499;27;20051;-69
2022/12/28 20:20:44;;;;;;;;;;;;;;;8.39;100.00;100092.03;10618521;28;20043;-69
2022/12/28 20:25:51;;;;;;;317.25;285.67;;;;;;;8.49;100.00;100093.28;10620419;28;20294;-68
2022/12/28 20:30:52;;;;;;;221.27;205.75;;;;;;;8.55;100.00;100075.78;10620571;28;20047;-73
2022/12/28 20:36:00;;;;;;;102.07;96.65;;;;;;;8.58;100.00;100080.81;10620622;28;20092;-72
2022/12/28 20:41:04;;;;;;;136.05;129.00;;;;;;;8.59;100.00;100077.31;10620459;28;20051;-71
2022/12/28 20:46:10;;;;;;;194.45;182.93;;;;;;;8.70;100.00;100064.66;10620388;28;20043;-69
2022/12/28 20:51:13;;;;;;;124.35;117.30;;;;;;;8.81;100.00;100069.34;10617693;28;20065;-74
2022/12/28 20:56:15;;;;;;;235.65;220.63;;;;;;;8.85;100.00;100057.03;10619784;28;20063;-69
2022/12/28 21:01:18;;;;;;;164.43;155.43;;;;;;;8.94;100.00;100059.19;10619579;28;20062;-71
2022/12/28 21:06:21;;;;;;;124.60;118.47;;;;;;;8.94;100.00;100046.19;10619400;28;20154;-71
2022/12/28 21:11:23;;;;;;;246.48;224.25;;;;;;;9.15;100.00;100043.44;10619369;28;20092;-69
2022/12/28 21:16:25;;;;;;;111.75;106.18;;;;;;;9.15;100.00;100038.25;10617208;28;20059;-73
2022/12/28 21:21:28;;;;;;;57.22;54.38;;;;;;;9.14;100.00;100026.16;10621812;27;20047;-68
2022/12/28 21:26:30;;;;;;;214.98;200.98;;;;;;;9.18;100.00;100022.47;10627359;27;20096;-69
2022/12/28 21:31:32;;;;;;;237.15;223.10;;;;;;;9.26;100.00;100009.91;10627023;27;20096;-75
2022/12/28 21:36:35;;;;;;;191.10;178.90;;;;;;;9.29;100.00;100003.69;10626988;27;20047;-69
2022/12/28 21:41:49;;;;;;;324.80;299.95;;;;;;;9.32;100.00;100002.69;10626194;27;20051;-67
2022/12/28 21:46:52;;;;;;;153.32;145.13;;;;;;;9.31;100.00;99990.59;10623187;27;20533;-67
2022/12/28 21:51:58;;;;;;;85.82;80.80;;;;;;;9.25;100.00;99987.41;10627388;27;20073;-67
2022/12/28 21:57:00;;;;;;;333.23;302.63;;;;;;;9.43;100.00;99976.97;10625638;27;20062;-70
2022/12/28 22:07:23;;;;;;;138.27;131.15;;;;;;;9.45;100.00;99977.75;10625192;27;20073;-68
2022/12/28 22:12:35;;;;;;;722.05;451.13;;;;;;;9.53;100.00;99964.31;10625958;27;20073;-68
2022/12/28 22:17:37;;;;;;;392.30;360.75;;;;;;;9.60;100.00;99967.41;10622926;27;20051;-68
2022/12/28 22:22:42;;;;;;;160.13;151.80;;;;;;;9.63;100.00;99946.44;10624221;27;20062;-68
2022/12/28 22:27:44;;;;;;;264.10;245.50;;;;;;;9.56;100.00;99951.13;10624531;27;20092;-76
2022/12/28 22:32:46;;;;;;;195.75;182.60;;;;;;;9.52;100.00;99958.25;10623803;27;20110;-71
2022/12/28 22:37:49;;;;;;;132.98;126.32;;;;;;;9.45;100.00;99951.69;10623943;27;20055;-68
2022/12/28 22:42:51;;;;;;;183.80;173.25;;;;;;;9.44;100.00;99947.38;10624157;27;20043;-68
2022/12/28 22:47:58;;;;;;;;;;;;;;;9.43;100.00;99957.88;10621576;27;20088;-69
2022/12/28 22:53:01;;;;;;;273.55;252.88;;;;;;;9.47;100.00;99949.84;10623887;27;19919;-70
2022/12/28 22:58:02;;;;;;;123.95;117.28;;;;;;;9.58;100.00;99943.22;10624267;27;20046;-71
2022/12/28 23:03:06;;;;;;;83.57;79.45;;;;;;;9.63;100.00;99957.69;10623766;27;20195;-71